Terminal Aerodrome Forecast
Issued by NWS

Home | Current Version | Previous Version | Text Only | Print | Product List | Glossary On
Versions: 1 2 3 4 5 6 7 8 9 10 11 12 13 14 15 16 17 18 19 20
000
FTUS44 KTSA 020500
TAFXNA
TAF
KXNA 020520Z 0206/0306 00000KT P6SM SKC
     FM020900 00000KT 4SM BR SCT250
      TEMPO 0210/0212 1SM BR SCT003
     FM021400 07006KT P6SM SCT250
     FM030100 VRB03KT P6SM SCT250=

USA.gov is the U.S. government's official web portal to all federal, state and local government web resources and services.